Saint Clement, Missouri
Current Conditions -  °F | °C
As of 10:15 AM on Saturday 27 Dec 2014 (Local Time) from KPPQ Reporting Station
Broken Clouds Broken Clouds  
Wind Chill:   Ceiling: 12000
Heat Index:   Visibility: 10mi
Dew Point:   Wind: 12mph
Humidity: 72%   Direction: 270°W
Pressure: 30.17"   Gusts: NA
Location:  39.321°N, 91.1912°W
Report Text: KPPQ 271615Z AUTO 27010KT 10SM SCT021 SCT100 BKN120 05/00 A3017 RMK AO2 T00470000
Loading
Personal Weather Stations






























Interactive Weather Map New forecast layout! Learn more

10-Day Weather Forecast

Advertisements
Track Severe Weather on mobile